Time;durP1;ratioP1;P1;durP2;ratioP2;P2;SDS_P1;SDS_P2;PMS_P1;PMS_P2;Temp;Humidity;BMP_temperature;BMP_pressure;BME280_temperature;BME280_humidity;BME280_pressure;Samples;Min_cycle;Max_cycle;Signal;HPM_P1;HPM_P2
2020/12/01 00:00:45;;;;;;;63.75;29.92;;;;;;;0.16;100.00;100699.59;10450314;28;20103;-74
2020/12/01 00:05:46;;;;;;;63.90;28.42;;;;;;;0.20;100.00;100704.72;10452067;28;20052;-72
2020/12/01 00:10:47;;;;;;;64.80;29.38;;;;;;;0.31;100.00;100697.75;10450737;28;20044;-72
2020/12/01 00:15:48;;;;;;;63.65;30.38;;;;;;;0.14;100.00;100694.47;10451441;28;20049;-72
2020/12/01 00:20:49;;;;;;;70.35;29.65;;;;;;;0.16;100.00;100664.41;10450602;28;20045;-71
2020/12/01 00:25:50;;;;;;;62.75;28.48;;;;;;;0.18;100.00;100677.28;10450882;28;20110;-74
2020/12/01 00:30:51;;;;;;;65.70;29.40;;;;;;;0.20;100.00;100665.25;10449542;28;20037;-75
2020/12/01 00:35:52;;;;;;;71.63;31.23;;;;;;;0.18;100.00;100654.13;10450291;28;20056;-71
2020/12/01 00:40:53;;;;;;;64.63;29.60;;;;;;;0.28;100.00;100642.88;10450398;28;20094;-71
2020/12/01 00:45:54;;;;;;;63.25;29.25;;;;;;;0.21;100.00;100644.63;10450988;28;20045;-71
2020/12/01 00:50:55;;;;;;;70.80;30.05;;;;;;;0.19;100.00;100624.94;10450888;28;20094;-73
2020/12/01 00:55:56;;;;;;;61.88;28.92;;;;;;;0.20;100.00;100626.66;10450652;28;20140;-72
2020/12/01 01:00:57;;;;;;;61.88;28.83;;;;;;;0.12;100.00;100605.25;10447414;28;20041;-73
2020/12/01 01:05:58;;;;;;;66.40;29.65;;;;;;;0.14;100.00;100580.38;10448275;28;20049;-73
2020/12/01 01:10:59;;;;;;;62.85;30.15;;;;;;;0.27;100.00;100564.78;10447827;28;20141;-76
2020/12/01 01:16:00;;;;;;;71.13;31.55;;;;;;;0.36;100.00;100582.72;10449434;28;20136;-73
2020/12/01 01:21:02;;;;;;;66.38;29.95;;;;;;;0.25;100.00;100578.56;10447748;28;20124;-73
2020/12/01 01:26:03;;;;;;;67.03;29.27;;;;;;;0.32;100.00;100559.59;10449648;28;20049;-74
2020/12/01 01:31:04;;;;;;;64.47;30.23;;;;;;;0.37;100.00;100566.41;10448074;28;20040;-73
2020/12/01 01:36:05;;;;;;;67.47;30.00;;;;;;;0.41;100.00;100549.19;10449007;28;20083;-72
2020/12/01 01:41:07;;;;;;;64.97;27.90;;;;;;;0.32;100.00;100551.88;10448731;28;20060;-73
2020/12/01 01:46:44;;;;;;;61.88;30.08;;;;;;;0.33;100.00;100544.16;10448854;28;20053;-73
2020/12/01 01:51:55;;;;;;;65.93;29.23;;;;;;;0.41;100.00;100528.59;10455400;28;20044;-73
2020/12/01 01:57:01;;;;;;;66.05;29.05;;;;;;;0.34;100.00;100522.69;10456584;28;20307;-73
2020/12/01 02:02:02;;;;;;;67.72;28.30;;;;;;;0.35;100.00;100518.41;10453982;28;20045;-73
2020/12/01 02:07:05;;;;;;;65.25;28.52;;;;;;;0.45;100.00;100511.44;10456487;28;20087;-73
2020/12/01 02:12:06;;;;;;;56.63;27.48;;;;;;;0.32;100.00;100501.25;10455534;28;20737;-73
2020/12/01 02:17:22;;;;;;;60.60;26.92;;;;;;;0.40;100.00;100502.03;10456310;28;20107;-73
2020/12/01 02:22:26;;;;;;;65.07;30.30;;;;;;;0.41;100.00;100487.41;10454851;28;20095;-73
2020/12/01 02:27:27;;;;;;;61.15;27.77;;;;;;;0.36;100.00;100466.88;10454756;28;20139;-73
2020/12/01 02:32:28;;;;;;;63.67;27.25;;;;;;;0.33;100.00;100458.34;10453597;28;20119;-74
2020/12/01 02:37:29;;;;;;;62.60;28.95;;;;;;;0.46;100.00;100456.50;10454237;28;20095;-74
2020/12/01 02:42:30;;;;;;;65.22;28.88;;;;;;;0.27;100.00;100453.25;10454207;28;20099;-75
2020/12/01 02:47:31;;;;;;;63.40;27.85;;;;;;;0.29;100.00;100443.81;10454365;28;20099;-74
2020/12/01 02:52:33;;;;;;;62.15;27.98;;;;;;;0.32;100.00;100430.91;10453971;28;20083;-74
2020/12/01 02:57:34;;;;;;;63.90;28.50;;;;;;;0.37;100.00;100423.97;10454226;28;20056;-75
2020/12/01 03:02:35;;;;;;;62.67;28.35;;;;;;;0.20;100.00;100411.31;10452598;28;20090;-74
2020/12/01 03:07:36;;;;;;;63.63;28.27;;;;;;;0.26;100.00;100406.09;10454216;28;20055;-74
2020/12/01 03:12:36;;;;;;;58.97;26.58;;;;;;;0.20;100.00;100400.19;10452276;28;20056;-74
2020/12/01 03:17:37;;;;;;;64.15;28.30;;;;;;;0.31;100.00;100390.56;10453180;28;20049;-74
2020/12/01 03:22:38;;;;;;;58.53;26.67;;;;;;;0.26;100.00;100382.06;10458702;28;20072;-74
2020/12/01 03:27:40;;;;;;;57.90;26.50;;;;;;;0.36;100.00;100379.34;10465820;28;20057;-74
2020/12/01 03:32:41;;;;;;;56.45;25.60;;;;;;;0.24;100.00;100381.25;10465755;28;20045;-73
2020/12/01 03:37:42;;;;;;;62.20;26.10;;;;;;;0.18;100.00;100376.16;10460223;28;20049;-73
2020/12/01 03:42:42;;;;;;;55.33;26.25;;;;;;;0.18;100.00;100369.31;10452181;28;20053;-73
2020/12/01 03:47:43;;;;;;;56.03;24.23;;;;;;;0.14;100.00;100369.38;10451751;28;20053;-73
2020/12/01 03:52:44;;;;;;;53.95;25.15;;;;;;;0.17;100.00;100364.16;10450878;28;20048;-73
2020/12/01 03:57:45;;;;;;;55.63;24.55;;;;;;;0.17;100.00;100371.88;10451623;28;20139;-73
2020/12/01 04:02:46;;;;;;;51.45;24.10;;;;;;;0.25;100.00;100357.22;10450073;28;20069;-72
2020/12/01 04:07:48;;;;;;;56.90;25.85;;;;;;;0.24;100.00;100350.38;10451203;28;20049;-72
2020/12/01 04:12:50;;;;;;;57.30;26.58;;;;;;;0.24;100.00;100350.38;10450298;28;20630;-72
2020/12/01 04:17:52;;;;;;;53.47;25.48;;;;;;;0.31;100.00;100346.81;10451771;28;20056;-72
2020/12/01 04:22:53;;;;;;;59.67;26.48;;;;;;;0.21;100.00;100346.09;10450290;28;20056;-73
2020/12/01 04:27:56;;;;;;;56.05;25.10;;;;;;;0.28;100.00;100344.28;10451196;28;20072;-74
2020/12/01 04:32:58;;;;;;;56.33;25.70;;;;;;;0.19;100.00;100352.16;10449555;28;20048;-73
2020/12/01 04:38:03;;;;;;;63.13;27.02;;;;;;;0.27;100.00;100348.59;10449007;28;20053;-73
2020/12/01 04:43:29;;;;;;;63.05;27.15;;;;;;;0.28;100.00;100337.44;10449884;28;20131;-73
2020/12/01 04:48:42;;;;;;;58.00;25.67;;;;;;;0.31;100.00;100346.81;10449858;28;20053;-73
2020/12/01 04:54:41;;;;;;;64.50;27.52;;;;;;;0.20;100.00;100338.41;10448172;28;20382;-74
2020/12/01 05:00:00;;;;;;;65.85;27.38;;;;;;;0.24;100.00;100332.34;10404815;28;20053;-73
2020/12/01 05:05:40;;;;;;;55.80;25.30;;;;;;;0.15;100.00;100319.63;10448423;28;20103;-72
2020/12/01 05:10:46;;;;;;;62.72;26.75;;;;;;;0.36;100.00;100321.88;10448787;28;20141;-72
2020/12/01 05:15:54;;;;;;;62.47;27.85;;;;;;;0.23;100.00;100322.91;10449395;28;20135;-72
2020/12/01 05:21:03;;;;;;;68.10;28.38;;;;;;;0.28;100.00;100316.84;10448731;28;20049;-72
2020/12/01 05:26:08;;;;;;;60.35;26.50;;;;;;;0.28;100.00;100316.00;10457286;28;20053;-72
2020/12/01 05:31:09;;;;;;;67.57;28.92;;;;;;;0.30;100.00;100316.81;10455971;28;20057;-72
2020/12/01 05:36:22;;;;;;;67.10;30.33;;;;;;;0.34;100.00;100321.06;10456937;28;20056;-72
2020/12/01 05:41:36;;;;;;;67.63;28.13;;;;;;;0.32;100.00;100317.63;10457044;28;20128;-72
2020/12/01 05:47:05;;;;;;;75.80;29.70;;;;;;;0.39;100.00;100308.97;10456343;28;20052;-72
2020/12/01 05:52:27;;;;;;;67.95;28.85;;;;;;;0.46;100.00;100314.88;10451324;28;20045;-73
2020/12/01 05:57:28;;;;;;;64.15;28.20;;;;;;;0.38;100.00;100315.84;10454858;28;20049;-73
2020/12/01 06:02:47;;;;;;;62.35;27.98;;;;;;;0.44;100.00;100314.91;10454606;28;20515;-74
2020/12/01 06:07:51;;;;;;;66.35;27.15;;;;;;;0.45;100.00;100308.03;10455794;28;20562;-74
2020/12/01 06:13:26;;;;;;;59.72;24.92;;;;;;;0.42;100.00;100301.19;10455178;28;20551;-74
2020/12/01 06:18:53;;;;;;;56.90;25.13;;;;;;;0.51;100.00;100313.91;10455600;28;20059;-74
2020/12/01 06:24:31;;;;;;;56.67;25.00;;;;;;;0.39;100.00;100311.53;10445128;28;20049;-74
2020/12/01 06:29:52;;;;;;;55.80;26.23;;;;;;;0.58;100.00;100309.53;10455919;28;20053;-75
2020/12/01 06:35:31;;;;;;;60.65;25.55;;;;;;;0.61;100.00;100309.50;10452835;28;20210;-75
2020/12/01 06:40:41;;;;;;;55.25;25.23;;;;;;;0.56;100.00;100312.13;10453977;28;20056;-74
2020/12/01 06:45:49;;;;;;;57.33;25.08;;;;;;;0.48;100.00;100308.81;10455192;28;20102;-75
2020/12/01 06:50:54;;;;;;;61.97;25.13;;;;;;;0.60;100.00;100302.66;10454766;28;20067;-74
2020/12/01 06:55:58;;;;;;;62.83;25.30;;;;;;;0.55;100.00;100307.88;10454429;28;20045;-73
2020/12/01 07:01:29;;;;;;;60.67;25.48;;;;;;;0.59;100.00;100299.22;10453348;28;20049;-73
2020/12/01 07:06:30;;;;;;;59.65;26.88;;;;;;;0.62;100.00;100317.19;10409219;28;20057;-73
2020/12/01 07:11:33;;;;;;;53.42;24.25;;;;;;;0.58;100.00;100315.53;10413252;28;20050;-72
2020/12/01 07:16:43;;;;;;;58.10;24.15;;;;;;;0.61;100.00;100318.06;10413280;28;20057;-71
2020/12/01 07:22:07;;;;;;;57.40;25.73;;;;;;;0.57;100.00;100313.84;10411630;28;20049;-72
2020/12/01 07:27:23;;;;;;;60.00;24.73;;;;;;;0.66;100.00;100312.88;10444490;28;20390;-72
2020/12/01 07:32:30;;;;;;;56.03;24.75;;;;;;;0.63;100.00;100310.31;10438058;28;20094;-72
2020/12/01 07:37:57;;;;;;;52.70;23.65;;;;;;;0.66;100.00;100312.88;10452801;28;20189;-72
2020/12/01 07:43:02;;;;;;;59.35;24.95;;;;;;;0.58;100.00;100312.97;10452942;28;20045;-71
2020/12/01 07:48:03;;;;;;;53.00;23.75;;;;;;;0.64;100.00;100315.47;10451272;28;20488;-71
2020/12/01 07:53:09;;;;;;;56.97;23.85;;;;;;;0.60;100.00;100307.81;10451127;28;20095;-71
2020/12/01 07:58:16;;;;;;;55.63;25.02;;;;;;;0.69;100.00;100313.66;10435392;28;20128;-71
2020/12/01 08:03:23;;;;;;;58.75;24.50;;;;;;;0.80;100.00;100321.22;10477857;28;20051;-71
2020/12/01 08:08:24;;;;;;;49.42;22.73;;;;;;;0.76;100.00;100325.53;10485965;28;20051;-71
2020/12/01 08:13:25;;;;;;;55.83;24.00;;;;;;;0.82;100.00;100333.19;10479280;28;20045;-72
2020/12/01 08:18:28;;;;;;;50.13;23.70;;;;;;;0.75;100.00;100334.19;10480406;28;20048;-71
2020/12/01 08:23:31;;;;;;;54.05;24.20;;;;;;;0.82;100.00;100329.75;10478278;28;20097;-71
2020/12/01 08:28:42;;;;;;;48.72;22.50;;;;;;;0.90;100.00;100333.06;10477469;28;20049;-71
2020/12/01 08:34:05;;;;;;;46.47;21.92;;;;;;;0.89;100.00;100328.78;10478677;28;20075;-71
2020/12/01 08:39:38;;;;;;;52.85;23.33;;;;;;;0.95;100.00;100330.44;10474682;28;20056;-72
2020/12/01 08:44:54;;;;;;;47.78;23.00;;;;;;;1.00;100.00;100331.19;10467172;28;20102;-71
2020/12/01 08:49:55;;;;;;;46.38;22.75;;;;;;;1.06;100.00;100331.09;10476195;28;20054;-71
2020/12/01 08:55:02;;;;;;;53.85;23.20;;;;;;;1.09;100.00;100339.63;10475794;28;20045;-71
2020/12/01 09:00:10;;;;;;;54.38;23.08;;;;;;;1.04;100.00;100346.59;10484413;28;20056;-71
2020/12/01 09:05:35;;;;;;;56.75;24.48;;;;;;;1.13;100.00;100350.72;10510993;28;20106;-70
2020/12/01 09:10:37;;;;;;;50.90;22.52;;;;;;;1.07;100.00;100346.53;10512366;28;20040;-71
2020/12/01 09:15:49;;;;;;;50.83;22.92;;;;;;;1.14;100.00;100342.13;10501369;28;20045;-71
2020/12/01 09:21:01;;;;;;;53.30;22.58;;;;;;;1.17;100.00;100348.06;10501463;28;20059;-69
2020/12/01 09:26:18;;;;;;;53.78;24.48;;;;;;;1.33;100.00;100346.06;10486229;28;20075;-71
2020/12/01 09:31:22;;;;;;;47.73;21.67;;;;;;;1.24;100.00;100344.53;10509371;28;20056;-72
2020/12/01 09:36:24;;;;;;;49.30;21.63;;;;;;;1.32;100.00;100352.13;10519936;28;20044;-72
2020/12/01 09:41:26;;;;;;;43.50;21.33;;;;;;;1.36;100.00;100355.50;10509685;28;20051;-69
2020/12/01 09:46:34;;;;;;;52.25;21.85;;;;;;;1.44;100.00;100357.06;10525818;28;20110;-68
2020/12/01 09:51:35;;;;;;;42.92;20.48;;;;;;;1.42;100.00;100356.25;10526625;28;20079;-68
2020/12/01 09:57:01;;;;;;;42.33;20.63;;;;;;;1.40;100.00;100355.41;10481135;28;20045;-68
2020/12/01 10:39:00;;;;;;;40.45;19.65;;;;;;;1.75;100.00;100362.50;10504714;28;20078;-70
2020/12/01 10:44:02;;;;;;;45.92;21.48;;;;;;;1.78;100.00;100346.94;10514215;28;20089;-70
2020/12/01 10:49:03;;;;;;;45.55;20.88;;;;;;;1.75;100.00;100361.66;10512181;28;20113;-70
2020/12/01 10:54:04;;;;;;;41.30;19.77;;;;;;;1.62;100.00;100351.59;10538779;28;20052;-70
2020/12/01 10:59:05;;;;;;;46.15;21.85;;;;;;;1.81;100.00;100351.22;10523995;28;20044;-71
2020/12/01 11:04:06;;;;;;;44.15;20.65;;;;;;;1.74;100.00;100355.63;10512040;28;20054;-71
2020/12/01 11:09:08;;;;;;;40.90;19.27;;;;;;;1.83;100.00;100359.78;10512785;28;20415;-71
2020/12/01 11:14:09;;;;;;;37.55;18.45;;;;;;;1.76;100.00;100358.19;10523586;28;20055;-71
2020/12/01 11:19:10;;;;;;;39.47;18.38;;;;;;;1.79;100.00;100346.06;10521056;28;20564;-70
2020/12/01 11:24:11;;;;;;;39.35;19.65;;;;;;;1.85;100.00;100353.72;10513306;28;20052;-71
2020/12/01 11:29:13;;;;;;;31.10;17.10;;;;;;;1.91;100.00;100352.75;10509476;28;20047;-71
2020/12/01 11:34:14;;;;;;;33.90;17.33;;;;;;;1.86;100.00;100350.25;10519299;28;20106;-71
2020/12/01 11:39:15;;;;;;;33.63;16.58;;;;;;;1.85;100.00;100352.84;10519963;28;20454;-71
2020/12/01 11:44:18;;;;;;;32.72;16.60;;;;;;;1.89;100.00;100362.22;10525363;28;20524;-71
2020/12/01 11:49:19;;;;;;;32.53;16.40;;;;;;;1.94;100.00;100370.72;10524720;28;20093;-71
2020/12/01 11:54:20;;;;;;;30.92;16.73;;;;;;;1.96;100.00;100374.16;10512368;28;20071;-71
2020/12/01 11:59:21;;;;;;;32.58;16.35;;;;;;;1.87;100.00;100372.59;10512730;28;20055;-71
2020/12/01 12:04:22;;;;;;;29.83;16.35;;;;;;;1.86;100.00;100370.91;10516608;28;20435;-71
2020/12/01 12:09:23;;;;;;;32.22;15.68;;;;;;;1.93;100.00;100369.88;10506882;28;20058;-71
2020/12/01 12:14:24;;;;;;;33.00;16.50;;;;;;;2.00;100.00;100368.03;10513844;28;20060;-71
2020/12/01 12:19:25;;;;;;;29.85;15.70;;;;;;;1.99;100.00;100372.34;10509846;28;20079;-71
2020/12/01 12:24:26;;;;;;;36.03;17.30;;;;;;;2.10;100.00;100369.56;10515075;28;20127;-71
2020/12/01 12:29:27;;;;;;;32.03;16.17;;;;;;;2.11;100.00;100358.34;10514028;28;20079;-71
2020/12/01 12:34:28;;;;;;;33.50;17.15;;;;;;;2.08;100.00;100355.84;10504614;28;20036;-71
2020/12/01 12:39:29;;;;;;;31.52;15.30;;;;;;;2.10;100.00;100357.50;10495750;28;20052;-71
2020/12/01 12:44:30;;;;;;;28.02;14.65;;;;;;;2.11;100.00;100360.94;10512783;28;20036;-71
2020/12/01 12:49:33;;;;;;;37.30;17.45;;;;;;;2.17;100.00;100350.47;10513382;28;20564;-71
2020/12/01 12:54:34;;;;;;;51.50;24.92;;;;;;;2.13;100.00;100354.03;10510045;28;20090;-71
2020/12/01 12:59:35;;;;;;;33.72;17.38;;;;;;;2.23;100.00;100362.41;10517516;28;20163;-71
2020/12/01 13:04:37;;;;;;;31.42;15.95;;;;;;;2.23;100.00;100349.50;10518821;28;20525;-71
2020/12/01 13:09:37;;;;;;;30.88;16.27;;;;;;;2.13;100.00;100354.03;10514990;28;20048;-72
2020/12/01 13:14:41;;;;;;;29.58;15.95;;;;;;;2.14;100.00;100356.53;10483207;28;20056;-71
2020/12/01 13:19:42;;;;;;;34.10;17.30;;;;;;;2.21;100.00;100361.59;10475783;28;20068;-71
2020/12/01 13:24:43;;;;;;;30.13;16.38;;;;;;;2.27;100.00;100382.13;10484836;28;20048;-71
2020/12/01 13:29:45;;;;;;;35.65;17.75;;;;;;;2.24;100.00;100375.28;10499585;28;20118;-71
2020/12/01 13:34:45;;;;;;;34.83;17.15;;;;;;;2.23;100.00;100381.34;10509724;28;20052;-71
2020/12/01 13:39:46;;;;;;;30.10;15.20;;;;;;;2.19;100.00;100384.00;10498751;28;20045;-72
2020/12/01 13:44:47;;;;;;;30.67;17.27;;;;;;;2.19;100.00;100382.25;10522123;28;20053;-72
2020/12/01 13:49:48;;;;;;;26.65;14.90;;;;;;;2.07;100.00;100382.53;10503003;28;20072;-71
2020/12/01 13:54:49;;;;;;;32.22;16.05;;;;;;;2.00;100.00;100386.09;10526365;28;20052;-72
2020/12/01 13:59:50;;;;;;;30.75;15.50;;;;;;;2.13;100.00;100385.00;10512742;28;20050;-72
2020/12/01 14:04:51;;;;;;;30.48;15.65;;;;;;;2.19;100.00;100387.44;10518928;28;20047;-71
2020/12/01 14:09:52;;;;;;;31.15;17.35;;;;;;;2.25;100.00;100395.06;10512602;28;20544;-70
2020/12/01 14:14:53;;;;;;;32.17;15.93;;;;;;;2.17;100.00;100390.94;10489039;28;20161;-71
2020/12/01 14:19:55;;;;;;;31.35;15.35;;;;;;;2.24;100.00;100382.16;10480003;28;20140;-72
2020/12/01 14:24:56;;;;;;;33.13;16.40;;;;;;;2.29;100.00;100380.34;10474638;28;20417;-72
2020/12/01 14:29:57;;;;;;;30.20;16.00;;;;;;;2.25;100.00;100376.97;10480782;28;20052;-71
2020/12/01 14:34:58;;;;;;;32.40;16.45;;;;;;;2.25;100.00;100382.16;10499748;28;20045;-71
2020/12/01 14:40:01;;;;;;;29.58;15.65;;;;;;;2.29;100.00;100386.34;10491285;28;20064;-71
2020/12/01 14:45:06;;;;;;;29.30;14.98;;;;;;;2.33;100.00;100395.78;10493017;28;20041;-71
2020/12/01 14:50:25;;;;;;;32.20;16.38;;;;;;;2.27;100.00;100401.06;10487330;28;20098;-72
2020/12/01 14:55:48;;;;;;;31.08;15.68;;;;;;;2.29;100.00;100401.00;10512142;28;20048;-71
2020/12/01 15:01:07;;;;;;;28.33;15.43;;;;;;;2.29;100.00;100404.44;10488991;28;20040;-72
2020/12/01 15:06:37;;;;;;;30.40;15.25;;;;;;;2.20;100.00;100404.63;10486313;28;20044;-71
2020/12/01 15:11:56;;;;;;;31.17;15.85;;;;;;;2.24;100.00;100408.00;10505750;28;20056;-71
2020/12/01 15:17:13;;;;;;;29.67;15.20;;;;;;;2.26;100.00;100417.41;10479244;28;20170;-72
2020/12/01 15:22:17;;;;;;;;;;;;;;;2.26;100.00;100417.41;10486697;28;20044;-72
2020/12/01 15:27:22;;;;;;;30.02;15.32;;;;;;;2.19;100.00;100431.31;10495966;28;19943;-72
2020/12/01 15:32:23;;;;;;;31.20;17.25;;;;;;;2.18;100.00;100426.22;10494504;28;20550;-72
2020/12/01 15:37:27;;;;;;;32.47;17.15;;;;;;;2.14;100.00;100435.72;10477141;28;20050;-72
2020/12/01 15:42:29;;;;;;;30.63;16.02;;;;;;;2.18;100.00;100429.66;10537942;28;20097;-73
2020/12/01 15:47:30;;;;;;;30.38;16.67;;;;;;;2.20;100.00;100433.03;10517191;28;20099;-73
2020/12/01 15:52:48;;;;;;;35.75;19.30;;;;;;;2.21;100.00;100423.56;10486838;28;20041;-73
2020/12/01 15:58:05;;;;;;;32.72;18.02;;;;;;;2.21;100.00;100439.91;10497542;28;20974;-73
2020/12/01 16:03:32;;;;;;;35.40;18.95;;;;;;;2.22;100.00;100443.34;10482012;28;20040;-72
2020/12/01 16:08:52;;;;;;;36.67;19.13;;;;;;;2.22;100.00;100446.78;10490590;28;20048;-73
2020/12/01 16:14:15;;;;;;;36.78;19.00;;;;;;;2.23;100.00;100457.97;10525849;28;20055;-75
2020/12/01 16:19:37;;;;;;;34.30;17.77;;;;;;;2.25;100.00;100457.03;10491359;28;20052;-73
2020/12/01 16:24:40;;;;;;;29.63;16.40;;;;;;;2.12;100.00;100460.75;10498140;28;20044;-72
2020/12/01 16:30:00;;;;;;;33.60;18.42;;;;;;;2.18;100.00;100470.97;10505926;28;20052;-74
2020/12/01 16:35:09;;;;;;;34.47;18.88;;;;;;;2.24;100.00;100477.72;10527697;28;20032;-76
2020/12/01 16:40:26;;;;;;;34.17;19.85;;;;;;;2.22;100.00;100482.91;10472592;28;20049;-77
2020/12/01 16:45:36;;;;;;;34.15;18.42;;;;;;;2.25;100.00;100488.03;10500349;28;20450;-73
2020/12/01 16:50:47;;;;;;;34.90;18.58;;;;;;;2.28;100.00;100477.66;10505508;28;20055;-75
2020/12/01 16:56:02;;;;;;;36.65;19.02;;;;;;;2.23;100.00;100478.63;10506149;28;20094;-74
2020/12/01 17:01:25;;;;;;;41.90;22.27;;;;;;;2.30;100.00;100475.88;10502990;28;20451;-75
2020/12/01 17:07:02;;;;;;;34.25;18.40;;;;;;;2.28;100.00;100482.81;10463786;28;20489;-72
2020/12/01 17:12:18;;;;;;;39.78;19.10;;;;;;;2.28;100.00;100487.97;10450565;28;20484;-72
2020/12/01 17:17:39;;;;;;;40.53;21.00;;;;;;;2.25;100.00;100485.44;10492545;28;20454;-72
2020/12/01 17:22:41;;;;;;;38.90;19.50;;;;;;;2.24;100.00;100491.47;10500770;28;20045;-73
2020/12/01 17:27:44;;;;;;;42.17;21.23;;;;;;;2.28;100.00;100497.44;10494943;28;20553;-74
2020/12/01 17:32:58;;;;;;;38.35;20.63;;;;;;;2.29;100.00;100497.41;10462807;28;20052;-73
2020/12/01 17:38:13;;;;;;;45.08;22.70;;;;;;;2.24;100.00;100491.47;10480524;28;20526;-75
2020/12/01 17:43:30;;;;;;;46.38;23.52;;;;;;;2.24;100.00;100494.06;10508665;28;20426;-72
2020/12/01 17:48:43;;;;;;;44.20;22.38;;;;;;;2.23;100.00;100496.69;10515565;28;20048;-73
2020/12/01 17:53:56;;;;;;;46.70;22.55;;;;;;;2.21;100.00;100501.88;10516154;28;20453;-73
2020/12/01 17:58:59;;;;;;;44.72;22.27;;;;;;;2.19;100.00;100497.59;10529136;28;20487;-73
2020/12/01 18:04:00;;;;;;;45.33;20.10;;;;;;;2.25;100.00;100498.34;10490697;28;20040;-71
2020/12/01 18:09:03;;;;;;;45.60;20.92;;;;;;;2.25;100.00;100508.69;10494587;28;20044;-71
2020/12/01 18:14:27;;;;;;;47.50;22.25;;;;;;;2.28;100.00;100513.81;10500078;28;20705;-72
2020/12/01 18:19:52;;;;;;;42.58;20.52;;;;;;;2.25;100.00;100518.16;10480075;28;20052;-72
2020/12/01 18:25:01;;;;;;;46.53;20.48;;;;;;;2.19;100.00;100523.41;10498787;28;20036;-71
2020/12/01 18:30:13;;;;;;;48.85;22.65;;;;;;;2.21;100.00;100529.41;10508271;28;20049;-71
2020/12/01 18:35:28;;;;;;;46.20;23.08;;;;;;;2.18;100.00;100532.94;10490384;28;20727;-71
2020/12/01 18:40:40;;;;;;;41.88;19.67;;;;;;;2.22;100.00;100538.88;10494976;28;20074;-71
2020/12/01 18:45:48;;;;;;;43.40;19.42;;;;;;;2.23;100.00;100540.59;10495854;28;20079;-72
2020/12/01 18:50:49;;;;;;;38.35;17.88;;;;;;;2.16;100.00;100550.16;10493287;28;20093;-71
2020/12/01 18:55:52;;;;;;;41.28;18.23;;;;;;;2.18;100.00;100548.41;10483169;28;20132;-71
2020/12/01 19:01:00;;;;;;;41.33;18.15;;;;;;;2.17;100.00;100545.84;10476817;28;20423;-74
2020/12/01 19:06:06;;;;;;;46.97;19.45;;;;;;;2.22;100.00;100544.91;10492579;28;20052;-74
2020/12/01 19:11:08;;;;;;;52.25;22.73;;;;;;;2.20;100.00;100566.44;10508322;28;20044;-73
2020/12/01 19:16:09;;;;;;;52.47;23.25;;;;;;;2.20;100.00;100574.19;10514773;28;20592;-73
2020/12/01 19:21:10;;;;;;;46.33;21.05;;;;;;;2.13;100.00;100565.72;10487086;28;20102;-74
2020/12/01 19:26:17;;;;;;;45.75;18.92;;;;;;;2.18;100.00;100574.25;10499814;28;20048;-73
2020/12/01 19:31:18;;;;;;;43.78;18.85;;;;;;;2.15;100.00;100582.00;10509694;28;20073;-73
2020/12/01 19:36:19;;;;;;;49.15;19.70;;;;;;;2.21;100.00;100570.72;10498770;28;20051;-74
2020/12/01 19:41:21;;;;;;;52.45;21.85;;;;;;;2.22;100.00;100578.47;10494283;28;20051;-73
2020/12/01 19:46:22;;;;;;;51.63;22.00;;;;;;;2.19;100.00;100577.63;10527738;28;20075;-73
2020/12/01 19:51:23;;;;;;;58.47;22.65;;;;;;;2.26;100.00;100572.34;10501180;28;20052;-71
2020/12/01 19:56:26;;;;;;;54.00;23.33;;;;;;;2.20;100.00;100581.94;10525112;28;20037;-71
2020/12/01 20:01:27;;;;;;;65.53;27.92;;;;;;;2.19;100.00;100587.97;10507414;28;20056;-71
2020/12/01 20:06:28;;;;;;;55.45;22.73;;;;;;;2.15;100.00;100589.75;10493482;28;20055;-70
2020/12/01 20:11:29;;;;;;;66.65;24.20;;;;;;;2.05;100.00;100583.03;10497677;28;20539;-70
2020/12/01 20:16:30;;;;;;;61.00;24.65;;;;;;;2.06;100.00;100595.09;10489552;28;20045;-72
2020/12/01 20:21:33;;;;;;;69.15;25.67;;;;;;;2.11;100.00;100593.28;10499151;28;20369;-72
2020/12/01 20:26:34;;;;;;;71.13;26.50;;;;;;;2.10;100.00;100591.56;10490101;28;20051;-71
2020/12/01 20:31:36;;;;;;;91.30;29.90;;;;;;;2.21;100.00;100600.00;10504508;28;20040;-71
2020/12/01 20:36:49;;;;;;;70.13;24.60;;;;;;;2.27;100.00;100576.66;10479476;28;20075;-71
2020/12/01 20:41:49;;;;;;;64.35;23.17;;;;;;;2.21;100.00;100583.63;10493193;28;20060;-71
2020/12/01 20:46:50;;;;;;;98.57;30.88;;;;;;;2.27;100.00;100610.22;10533801;28;20056;-71
2020/12/01 20:51:52;;;;;;;88.15;29.10;;;;;;;2.21;100.00;100596.56;10495020;28;20106;-71
2020/12/01 20:56:54;;;;;;;74.70;26.55;;;;;;;2.23;100.00;100602.56;10488395;28;20071;-71
2020/12/01 21:02:00;;;;;;;71.07;24.75;;;;;;;2.25;100.00;100595.63;10510040;28;20048;-71
2020/12/01 21:07:02;;;;;;;76.20;24.92;;;;;;;2.27;100.00;100599.91;10511533;28;20566;-71
2020/12/01 21:12:08;;;;;;;83.13;27.48;;;;;;;2.28;100.00;100609.34;10515071;28;20177;-70
2020/12/01 21:17:12;;;;;;;67.90;26.30;;;;;;;2.25;100.00;100611.97;10502222;28;20052;-70
2020/12/01 21:22:23;;;;;;;89.38;26.08;;;;;;;2.30;100.00;100612.75;10491240;28;20061;-70
2020/12/01 21:27:49;;;;;;;69.60;22.33;;;;;;;2.21;100.00;100618.06;10477159;28;20261;-70
2020/12/01 21:32:53;;;;;;;84.45;27.98;;;;;;;2.30;100.00;100619.63;10505743;28;20036;-71
2020/12/01 21:37:54;;;;;;;101.18;30.52;;;;;;;2.33;100.00;100620.44;10501782;28;20114;-71
2020/12/01 21:43:06;;;;;;;89.78;27.92;;;;;;;2.40;100.00;100616.88;10480528;28;20446;-71
2020/12/01 21:48:11;;;;;;;89.22;26.35;;;;;;;2.23;100.00;100623.22;10509087;28;20071;-71
2020/12/01 21:53:56;;;;;;;88.65;26.75;;;;;;;2.26;100.00;100624.00;10508105;28;20491;-71
2020/12/01 21:59:21;;;;;;;91.30;28.33;;;;;;;2.23;100.00;100620.63;10466987;28;20099;-73
2020/12/01 22:04:31;;;;;;;94.65;27.60;;;;;;;2.27;100.00;100625.72;10522846;28;20407;-72
2020/12/01 22:09:54;;;;;;;86.15;27.17;;;;;;;2.26;100.00;100626.59;10526902;28;20059;-73
2020/12/01 22:15:02;;;;;;;96.93;30.02;;;;;;;2.33;100.00;100629.94;10531619;28;20485;-72
2020/12/01 22:20:14;;;;;;;86.47;29.08;;;;;;;2.31;100.00;100634.25;10514588;28;20052;-72
2020/12/01 22:25:31;;;;;;;77.05;27.63;;;;;;;2.35;100.00;100633.31;10519171;28;20047;-72
2020/12/01 22:31:08;;;;;;;78.53;25.60;;;;;;;2.26;100.00;100638.66;10463728;28;20489;-71
2020/12/01 22:36:29;;;;;;;76.93;24.48;;;;;;;2.21;100.00;100640.44;10491916;28;20552;-72
2020/12/01 22:41:46;;;;;;;71.90;23.90;;;;;;;2.24;100.00;100638.66;10493961;28;20075;-72
2020/12/01 22:46:56;;;;;;;70.88;23.25;;;;;;;2.22;100.00;100632.69;10485043;28;20109;-73
2020/12/01 22:52:26;;;;;;;69.05;24.58;;;;;;;2.24;100.00;100642.97;10489069;28;20049;-73
2020/12/01 22:57:57;;;;;;;65.32;22.17;;;;;;;2.12;100.00;100633.72;10449409;28;20049;-73
2020/12/01 23:03:04;;;;;;;89.72;24.73;;;;;;;2.21;100.00;100636.13;10485468;28;20813;-73
2020/12/01 23:08:22;;;;;;;75.47;24.60;;;;;;;2.24;100.00;100635.22;10479931;28;20044;-72
2020/12/01 23:13:35;;;;;;;85.72;24.35;;;;;;;2.19;100.00;100631.88;10484923;28;20036;-71
2020/12/01 23:18:36;;;;;;;86.05;22.00;;;;;;;2.06;100.00;100632.09;10505934;28;20160;-72
2020/12/01 23:23:37;;;;;;;84.00;21.40;;;;;;;2.21;100.00;100646.47;10535737;28;20044;-72
2020/12/01 23:28:39;;;;;;;86.72;24.30;;;;;;;2.01;100.00;100643.34;10535965;28;20090;-72
2020/12/01 23:33:42;;;;;;;90.97;24.33;;;;;;;1.85;100.00;100632.41;10534540;28;20044;-73
2020/12/01 23:38:44;;;;;;;76.90;21.08;;;;;;;1.87;100.00;100625.50;10535764;28;20048;-72